Time;durP1;ratioP1;P1;durP2;ratioP2;P2;SDS_P1;SDS_P2;PMS_P1;PMS_P2;Temp;Humidity;BMP_temperature;BMP_pressure;BME280_temperature;BME280_humidity;BME280_pressure;Samples;Min_cycle;Max_cycle;Signal;HPM_P1;HPM_P2
2023/09/10 00:02:25;;;;;;;8.13;6.88;;;19.70;99.90;;;;;;5248569;28;20127;-77
2023/09/10 00:04:56;;;;;;;10.50;7.15;;;19.70;99.90;;;;;;5247269;28;20051;-75
2023/09/10 00:07:27;;;;;;;9.75;6.10;;;19.60;99.90;;;;;;5248567;28;20021;-75
2023/09/10 00:09:58;;;;;;;335.55;84.15;;;19.60;99.90;;;;;;5248824;28;20025;-76
2023/09/10 00:12:29;;;;;;;7.65;6.60;;;19.60;99.90;;;;;;5248689;28;20031;-76
2023/09/10 00:15:00;;;;;;;11.40;6.53;;;19.50;99.90;;;;;;5247007;28;20075;-76
2023/09/10 00:17:31;;;;;;;7.05;6.32;;;19.60;99.90;;;;;;5247316;28;20556;-76
2023/09/10 00:20:02;;;;;;;14.93;13.50;;;19.60;99.90;;;;;;5248642;28;20024;-75
2023/09/10 00:22:33;;;;;;;7.95;7.38;;;19.60;99.90;;;;;;5248623;28;20078;-75
2023/09/10 00:25:05;;;;;;;0.10;0.10;;;19.60;99.90;;;;;;5248444;28;20024;-77
2023/09/10 00:27:35;;;;;;;0.10;0.10;;;19.50;99.90;;;;;;5247150;28;20103;-75
2023/09/10 00:30:07;;;;;;;0.28;0.20;;;19.50;99.90;;;;;;5248410;28;20132;-77
2023/09/10 00:32:38;;;;;;;0.20;0.20;;;19.50;99.90;;;;;;5246391;28;20388;-77
2023/09/10 00:35:08;;;;;;;0.38;0.20;;;19.70;99.90;;;;;;5247686;28;20040;-76
2023/09/10 00:37:40;;;;;;;0.20;0.10;;;19.50;99.90;;;;;;5248341;28;20025;-76
2023/09/10 00:40:12;;;;;;;0.00;0.00;;;19.50;99.90;;;;;;5248543;28;20032;-75
2023/09/10 00:42:43;;;;;;;0.00;0.00;;;19.50;99.90;;;;;;5247005;28;20036;-76
2023/09/10 00:45:14;;;;;;;0.00;0.00;;;19.60;99.90;;;;;;5248305;28;20028;-76
2023/09/10 00:47:46;;;;;;;0.00;0.00;;;19.50;99.90;;;;;;5248462;28;20021;-76
2023/09/10 00:50:17;;;;;;;0.00;0.00;;;19.70;99.90;;;;;;5247025;28;20086;-76
2023/09/10 00:52:56;;;;;;;0.00;0.00;;;19.70;99.90;;;;;;5248038;28;20112;-76
2023/09/10 00:55:29;;;;;;;11.10;10.10;;;19.70;99.90;;;;;;5248282;28;20052;-75
2023/09/10 00:58:00;;;;;;;15.90;14.93;;;19.60;99.90;;;;;;5247857;28;20099;-76
2023/09/10 01:00:33;;;;;;;4.93;4.30;;;19.80;99.90;;;;;;5247795;28;20048;-76
2023/09/10 01:03:06;;;;;;;6.30;4.80;;;19.70;99.90;;;;;;5248348;28;20533;-76
2023/09/10 01:05:37;;;;;;;0.00;0.00;;;19.80;99.90;;;;;;5248047;28;20021;-75
2023/09/10 01:08:07;;;;;;;0.00;0.00;;;19.60;99.90;;;;;;5248294;28;20391;-75
2023/09/10 01:10:58;;;;;;;0.00;0.00;;;19.50;99.90;;;;;;5248312;28;20032;-76
2023/09/10 01:14:12;;;;;;;11.82;5.32;;;19.40;99.90;;;;;;5247223;28;20074;-75
2023/09/10 01:16:52;;;;;;;8.13;5.47;;;19.50;99.90;;;;;;5241104;28;20029;-76
2023/09/10 01:19:42;;;;;;;13.75;7.05;;;19.50;99.90;;;;;;5245472;28;20399;-76
2023/09/10 01:22:56;;;;;;;9.75;5.93;;;19.30;99.90;;;;;;5242275;28;20047;-78
2023/09/10 01:25:28;;;;;;;7.28;6.13;;;19.60;99.90;;;;;;5163148;28;20510;-77
2023/09/10 01:28:03;;;;;;;7.78;5.75;;;19.60;99.90;;;;;;5231471;28;20035;-76
2023/09/10 01:30:34;;;;;;;7.65;6.95;;;19.70;99.90;;;;;;5241707;28;20154;-76
2023/09/10 01:33:30;;;;;;;7.95;7.15;;;19.60;99.90;;;;;;5225537;28;20025;-77
2023/09/10 01:36:14;;;;;;;12.60;9.10;;;19.60;99.90;;;;;;5235642;28;20020;-76
2023/09/10 01:38:55;;;;;;;489.58;162.32;;;19.90;99.90;;;;;;5243705;28;20017;-76
2023/09/10 01:41:29;;;;;;;35.25;31.92;;;19.90;99.90;;;;;;5238690;28;20035;-76
2023/09/10 01:44:03;;;;;;;15.25;13.93;;;20.00;99.90;;;;;;5238397;28;20027;-77
2023/09/10 01:46:36;;;;;;;15.38;13.98;;;19.90;99.90;;;;;;5240969;28;20025;-77
2023/09/10 01:49:08;;;;;;;16.42;14.98;;;19.90;99.90;;;;;;5235032;28;20393;-76
2023/09/10 01:51:41;;;;;;;14.18;13.02;;;20.00;99.90;;;;;;5236243;28;20056;-77
2023/09/10 01:54:12;;;;;;;13.32;12.02;;;19.80;99.90;;;;;;5251226;28;20020;-77
2023/09/10 01:56:43;;;;;;;13.82;12.50;;;20.00;99.90;;;;;;5239298;28;20047;-77
2023/09/10 01:59:17;;;;;;;14.63;13.35;;;19.90;99.90;;;;;;5231116;28;20420;-76
2023/09/10 02:01:48;;;;;;;13.90;12.73;;;19.80;99.90;;;;;;5248412;28;20028;-76
2023/09/10 02:04:20;;;;;;;15.20;12.90;;;19.90;99.90;;;;;;5240225;28;20021;-76
2023/09/10 02:06:51;;;;;;;14.38;12.98;;;19.90;99.90;;;;;;5230657;28;20385;-77
2023/09/10 02:09:22;;;;;;;13.77;12.65;;;20.10;99.90;;;;;;5239878;28;20048;-77
2023/09/10 02:11:53;;;;;;;12.77;11.73;;;20.20;99.90;;;;;;5233452;28;20028;-76
2023/09/10 02:14:24;;;;;;;12.55;11.45;;;20.10;99.90;;;;;;5239164;28;20459;-76
2023/09/10 02:16:55;;;;;;;12.32;9.63;;;20.20;99.90;;;;;;5238529;28;20025;-76
2023/09/10 02:19:26;;;;;;;9.43;8.38;;;20.30;99.90;;;;;;5237626;28;20029;-77
2023/09/10 02:21:58;;;;;;;8.70;7.90;;;20.30;99.90;;;;;;5249937;28;20119;-77
2023/09/10 02:24:29;;;;;;;9.10;8.20;;;20.40;99.90;;;;;;5249888;28;20491;-77
2023/09/10 02:27:00;;;;;;;8.85;7.72;;;20.50;99.90;;;;;;5249463;28;20070;-77
2023/09/10 02:29:31;;;;;;;11.45;7.38;;;20.50;99.90;;;;;;5249516;28;20498;-77
2023/09/10 02:32:03;;;;;;;9.35;6.45;;;20.60;99.90;;;;;;5250744;28;20476;-76
2023/09/10 02:34:34;;;;;;;9.00;6.63;;;20.60;99.90;;;;;;5232446;28;20499;-77
2023/09/10 02:37:05;;;;;;;10.98;7.57;;;20.70;99.90;;;;;;5228545;28;20079;-77
2023/09/10 02:39:36;;;;;;;9.07;8.18;;;20.80;99.90;;;;;;5240393;28;20549;-77
2023/09/10 02:42:07;;;;;;;10.05;7.80;;;20.80;99.90;;;;;;5250608;28;20032;-77
2023/09/10 02:44:38;;;;;;;9.90;8.20;;;20.90;99.90;;;;;;5231093;28;20092;-77
2023/09/10 02:47:14;;;;;;;12.15;10.82;;;20.90;99.90;;;;;;5229574;28;20103;-77
2023/09/10 02:49:45;;;;;;;11.98;10.98;;;20.90;99.90;;;;;;5228450;28;20043;-77
2023/09/10 02:52:19;;;;;;;12.32;11.23;;;21.00;99.90;;;;;;5234757;28;20025;-77
2023/09/10 02:54:54;;;;;;;11.10;10.10;;;21.00;99.90;;;;;;5250205;28;20036;-77
2023/09/10 02:57:27;;;;;;;10.13;9.23;;;21.20;99.90;;;;;;5248821;28;20082;-77
2023/09/10 02:59:59;;;;;;;9.05;8.23;;;21.20;99.90;;;;;;5248166;28;20048;-76
2023/09/10 03:02:32;;;;;;;8.95;8.05;;;21.20;99.90;;;;;;5248073;28;20422;-77
2023/09/10 03:05:06;;;;;;;9.75;7.60;;;21.20;99.90;;;;;;5247782;28;20029;-77
2023/09/10 03:07:41;;;;;;;9.10;7.93;;;21.20;99.90;;;;;;5236037;28;20025;-77
2023/09/10 03:10:14;;;;;;;9.07;8.20;;;21.20;99.90;;;;;;5227932;28;20060;-77
2023/09/10 03:12:47;;;;;;;10.88;7.28;;;21.20;99.90;;;;;;5248570;28;20063;-76
2023/09/10 03:15:24;;;;;;;8.73;7.47;;;21.30;99.90;;;;;;5245592;28;20537;-76
2023/09/10 03:17:55;;;;;;;9.70;8.07;;;21.30;99.90;;;;;;5249053;28;20070;-77
2023/09/10 03:20:28;;;;;;;12.43;8.27;;;21.40;99.90;;;;;;5236319;28;20025;-76
2023/09/10 03:23:04;;;;;;;9.15;7.28;;;21.40;99.90;;;;;;5229249;28;20033;-76
2023/09/10 03:25:40;;;;;;;9.55;7.22;;;21.50;99.90;;;;;;5229980;28;20020;-76
2023/09/10 03:28:14;;;;;;;7.60;6.22;;;21.50;99.90;;;;;;5227750;28;20119;-76
2023/09/10 03:30:50;;;;;;;8.75;6.40;;;21.60;99.90;;;;;;5243159;28;20033;-76
2023/09/10 03:33:24;;;;;;;9.32;6.40;;;21.60;99.90;;;;;;5249317;28;20024;-76
2023/09/10 03:36:01;;;;;;;8.82;6.63;;;21.60;99.90;;;;;;5248319;28;20024;-76
2023/09/10 03:38:34;;;;;;;7.35;6.32;;;21.60;99.90;;;;;;5249555;28;20444;-76
2023/09/10 03:41:10;;;;;;;12.55;6.53;;;21.60;99.90;;;;;;5249174;28;20016;-76
2023/09/10 03:43:43;;;;;;;6.68;6.05;;;21.70;99.90;;;;;;5248056;28;20020;-76
2023/09/10 03:46:27;;;;;;;9.20;6.60;;;21.70;99.90;;;;;;5248037;28;20034;-76
2023/09/10 03:48:58;;;;;;;9.40;6.47;;;21.70;99.90;;;;;;5248188;28;20039;-76
2023/09/10 03:51:30;;;;;;;12.13;6.95;;;21.70;99.90;;;;;;5247709;28;20106;-76
2023/09/10 03:54:01;;;;;;;13.15;6.45;;;21.70;99.90;;;;;;5248013;28;20162;-76
2023/09/10 03:56:32;;;;;;;8.90;6.45;;;21.70;99.90;;;;;;5249014;28;20077;-76
2023/09/10 03:59:03;;;;;;;11.05;6.90;;;21.70;99.90;;;;;;5249035;28;20543;-76
2023/09/10 04:01:35;;;;;;;12.98;6.85;;;21.70;99.90;;;;;;5248920;28;20073;-76
2023/09/10 04:04:06;;;;;;;9.18;5.80;;;21.80;99.90;;;;;;5247810;28;20029;-76
2023/09/10 04:06:37;;;;;;;10.25;6.13;;;21.80;99.90;;;;;;5249197;28;20055;-76
2023/09/10 04:09:08;;;;;;;10.48;6.18;;;21.80;99.90;;;;;;5247711;28;20037;-76
2023/09/10 04:11:39;;;;;;;8.65;6.45;;;21.70;99.90;;;;;;5248450;28;20021;-76
2023/09/10 04:14:10;;;;;;;7.95;6.82;;;21.80;99.90;;;;;;5248908;28;20021;-76
2023/09/10 04:16:41;;;;;;;9.38;6.75;;;21.90;99.90;;;;;;5248752;28;20050;-76
2023/09/10 04:19:12;;;;;;;9.60;7.25;;;21.90;99.90;;;;;;5248708;28;20091;-76
2023/09/10 04:21:43;;;;;;;9.45;7.20;;;21.90;99.90;;;;;;5248262;28;20361;-76
2023/09/10 04:24:14;;;;;;;8.32;7.20;;;21.90;99.90;;;;;;5247176;28;20129;-76
2023/09/10 04:26:45;;;;;;;10.02;7.57;;;22.00;99.90;;;;;;5246881;28;20032;-76
2023/09/10 04:29:16;;;;;;;10.55;6.20;;;22.00;99.90;;;;;;5248573;28;20037;-75
2023/09/10 04:31:47;;;;;;;8.10;6.20;;;22.00;99.90;;;;;;5248424;28;20020;-76
2023/09/10 04:34:17;;;;;;;9.43;6.80;;;22.10;99.90;;;;;;5247048;28;20032;-76
2023/09/10 04:36:48;;;;;;;9.15;6.57;;;22.10;99.90;;;;;;5247932;28;20013;-76
2023/09/10 04:39:19;;;;;;;13.82;6.60;;;22.30;99.90;;;;;;5247900;28;20078;-76
2023/09/10 04:41:50;;;;;;;7.88;6.22;;;22.30;99.90;;;;;;5246866;28;20380;-76
2023/09/10 04:44:21;;;;;;;10.30;6.30;;;22.40;99.90;;;;;;5247989;28;20029;-75
2023/09/10 04:46:54;;;;;;;6.85;6.20;;;22.50;99.90;;;;;;5237733;28;20059;-76
2023/09/10 04:49:25;;;;;;;7.18;6.05;;;22.60;99.90;;;;;;5246521;28;20032;-76
2023/09/10 04:51:56;;;;;;;9.57;5.25;;;22.70;99.90;;;;;;5247740;28;20032;-76
2023/09/10 04:54:27;;;;;;;10.77;6.35;;;22.80;99.90;;;;;;5248068;28;20100;-77
2023/09/10 04:56:58;;;;;;;9.73;6.18;;;22.90;99.90;;;;;;5248125;28;20049;-76
2023/09/10 04:59:29;;;;;;;11.20;7.72;;;22.80;99.90;;;;;;5247979;28;20407;-76
2023/09/10 05:02:00;;;;;;;8.43;7.65;;;22.80;99.90;;;;;;5247956;28;20025;-76
2023/09/10 05:04:31;;;;;;;9.07;7.45;;;22.70;99.90;;;;;;5247733;28;20032;-77
2023/09/10 05:07:02;;;;;;;11.23;7.38;;;22.80;99.90;;;;;;5247585;28;20070;-76
2023/09/10 05:09:33;;;;;;;10.68;7.28;;;22.80;99.90;;;;;;5246493;28;20051;-76
2023/09/10 05:12:04;;;;;;;9.50;6.95;;;22.70;99.90;;;;;;5246859;28;20025;-76
2023/09/10 05:14:35;;;;;;;7.57;6.75;;;22.80;99.90;;;;;;5247711;28;20036;-76
2023/09/10 05:17:06;;;;;;;8.73;7.38;;;23.00;99.90;;;;;;5247858;28;20024;-76
2023/09/10 05:19:37;;;;;;;10.82;8.10;;;22.90;99.90;;;;;;5248027;28;20107;-76
2023/09/10 05:22:08;;;;;;;10.85;8.20;;;23.00;99.90;;;;;;5248241;28;20392;-76
2023/09/10 05:24:38;;;;;;;12.82;8.57;;;23.00;99.90;;;;;;5251192;28;20035;-76
2023/09/10 05:27:09;;;;;;;9.95;7.88;;;23.10;99.90;;;;;;5246557;28;20024;-76
2023/09/10 05:29:40;;;;;;;9.02;7.38;;;23.20;99.90;;;;;;5251299;28;20072;-77
2023/09/10 05:32:11;;;;;;;11.88;8.05;;;23.40;99.90;;;;;;5251415;28;20033;-76
2023/09/10 05:34:42;;;;;;;9.38;7.20;;;23.30;99.90;;;;;;5250333;28;20492;-76
2023/09/10 05:37:13;;;;;;;9.88;8.98;;;23.30;99.90;;;;;;5250438;28;20361;-76
2023/09/10 05:39:44;;;;;;;11.10;9.23;;;23.40;99.90;;;;;;5250596;28;20434;-76
2023/09/10 05:42:15;;;;;;;11.23;9.68;;;23.40;99.90;;;;;;5251128;28;20028;-76
2023/09/10 05:44:45;;;;;;;10.95;9.32;;;23.70;99.90;;;;;;5245943;28;20044;-76
2023/09/10 05:47:19;;;;;;;9.40;8.38;;;23.60;99.90;;;;;;5251270;28;20025;-77
2023/09/10 05:49:53;;;;;;;14.10;8.80;;;23.60;99.90;;;;;;5248970;28;20462;-76
2023/09/10 05:52:24;;;;;;;11.13;8.43;;;23.60;99.90;;;;;;5250489;28;20527;-75
2023/09/10 05:54:55;;;;;;;9.85;7.53;;;23.70;99.90;;;;;;5251157;28;20108;-76
2023/09/10 05:57:26;;;;;;;12.30;7.75;;;23.50;99.90;;;;;;5242579;28;20016;-76
2023/09/10 05:59:57;;;;;;;9.30;7.38;;;23.40;99.90;;;;;;5249435;28;20649;-76
2023/09/10 06:02:28;;;;;;;13.75;7.68;;;23.50;99.90;;;;;;5250594;28;20025;-76
2023/09/10 06:04:59;;;;;;;10.43;7.28;;;23.70;99.90;;;;;;5249058;28;20127;-76
2023/09/10 06:07:29;;;;;;;9.75;7.43;;;23.50;99.90;;;;;;5250846;28;20024;-76
2023/09/10 06:10:05;;;;;;;11.02;8.15;;;23.80;99.90;;;;;;5249304;28;20103;-76
2023/09/10 06:12:39;;;;;;;16.08;9.05;;;23.90;99.90;;;;;;5250221;28;20029;-76
2023/09/10 06:15:10;;;;;;;9.98;8.98;;;24.00;99.90;;;;;;5240755;28;20119;-77
2023/09/10 06:17:41;;;;;;;10.80;8.70;;;24.00;99.90;;;;;;5250786;28;20112;-76
2023/09/10 06:20:14;;;;;;;9.68;8.77;;;24.00;99.90;;;;;;5250402;28;20047;-76
2023/09/10 06:22:45;;;;;;;10.82;9.10;;;23.90;99.90;;;;;;5248059;28;20369;-76
2023/09/10 06:25:16;;;;;;;17.77;8.85;;;23.90;99.90;;;;;;5250031;28;20042;-76
2023/09/10 06:27:46;;;;;;;10.85;9.10;;;23.80;99.90;;;;;;5249910;28;20032;-75
2023/09/10 06:30:17;;;;;;;12.10;9.75;;;23.90;99.90;;;;;;5249011;28;20434;-76
2023/09/10 06:32:49;;;;;;;9.65;8.65;;;23.90;99.90;;;;;;5249235;28;20029;-76
2023/09/10 06:35:20;;;;;;;9.02;8.20;;;24.00;99.90;;;;;;5250018;28;20032;-76
2023/09/10 06:37:51;;;;;;;15.57;9.07;;;23.90;99.90;;;;;;5249733;28;20025;-76
2023/09/10 06:40:22;;;;;;;12.70;9.18;;;24.00;99.90;;;;;;5249406;28;20023;-76
2023/09/10 06:42:53;;;;;;;11.18;9.98;;;23.90;99.90;;;;;;5249510;28;20017;-76
2023/09/10 06:45:24;;;;;;;14.32;10.00;;;24.00;99.90;;;;;;5249541;28;20029;-75
2023/09/10 06:47:55;;;;;;;14.70;9.13;;;24.20;99.90;;;;;;5247282;28;20097;-76
2023/09/10 06:50:25;;;;;;;11.82;10.38;;;24.30;99.90;;;;;;5246382;28;20041;-74
2023/09/10 06:52:56;;;;;;;14.10;9.55;;;24.30;99.90;;;;;;5249050;28;20029;-74
2023/09/10 06:55:27;;;;;;;12.93;9.52;;;24.30;99.90;;;;;;5248686;28;20033;-75
2023/09/10 06:57:58;;;;;;;11.88;9.95;;;24.40;99.90;;;;;;5242146;28;20021;-75
2023/09/10 07:00:31;;;;;;;13.57;9.60;;;24.50;99.90;;;;;;5254274;28;20186;-75
2023/09/10 07:03:06;;;;;;;10.18;7.93;;;24.30;99.90;;;;;;5246667;28;20032;-75
2023/09/10 07:05:41;;;;;;;12.38;7.93;;;24.60;99.90;;;;;;5247170;28;20051;-75
2023/09/10 07:08:12;;;;;;;12.55;8.10;;;24.70;99.90;;;;;;5248343;28;20060;-75
2023/09/10 07:10:43;;;;;;;14.38;8.35;;;24.90;99.90;;;;;;5246234;28;20507;-75
2023/09/10 07:13:16;;;;;;;11.75;9.77;;;24.90;99.90;;;;;;5248659;28;20024;-75
2023/09/10 07:15:47;;;;;;;16.70;12.10;;;25.20;99.90;;;;;;5245081;28;20070;-75
2023/09/10 07:18:18;;;;;;;16.10;12.90;;;25.30;99.90;;;;;;5247070;28;20051;-75
2023/09/10 07:20:49;;;;;;;14.75;11.88;;;25.40;99.90;;;;;;5247193;28;20028;-75
2023/09/10 07:23:19;;;;;;;14.27;10.07;;;25.20;99.90;;;;;;5248575;28;20083;-75
2023/09/10 07:25:50;;;;;;;19.50;10.95;;;25.30;99.90;;;;;;5248224;28;20020;-75
2023/09/10 07:28:22;;;;;;;15.77;13.43;;;25.30;99.90;;;;;;5248502;28;20032;-75
2023/09/10 07:30:52;;;;;;;15.65;14.02;;;25.50;99.90;;;;;;5248046;28;20174;-75
2023/09/10 07:33:23;;;;;;;16.08;14.63;;;25.60;99.90;;;;;;5248277;28;20103;-76
2023/09/10 07:35:55;;;;;;;18.45;15.90;;;25.70;99.90;;;;;;5246272;28;20040;-75
2023/09/10 07:38:26;;;;;;;20.55;16.05;;;25.70;99.90;;;;;;5247547;28;20066;-75
2023/09/10 07:40:56;;;;;;;16.20;14.68;;;25.70;99.90;;;;;;5247111;28;20032;-75
2023/09/10 07:43:27;;;;;;;15.68;14.10;;;25.80;99.90;;;;;;5245688;28;20551;-75
2023/09/10 07:45:59;;;;;;;13.40;10.55;;;26.00;99.90;;;;;;5245731;28;20488;-75
2023/09/10 07:48:30;;;;;;;14.57;10.77;;;26.00;99.90;;;;;;5224894;28;20446;-75
2023/09/10 07:51:01;;;;;;;13.20;8.77;;;25.90;99.90;;;;;;5207760;28;20049;-76
2023/09/10 07:53:32;;;;;;;16.30;8.52;;;25.80;99.90;;;;;;5213229;28;20044;-75
2023/09/10 07:56:03;;;;;;;10.07;8.02;;;25.50;99.90;;;;;;5220703;28;20481;-75
2023/09/10 07:58:34;;;;;;;13.13;8.65;;;25.60;99.90;;;;;;5207294;28;20043;-75
2023/09/10 08:01:05;;;;;;;11.85;7.60;;;25.60;99.90;;;;;;5223062;28;20076;-75
2023/09/10 08:03:38;;;;;;;14.57;7.28;;;25.50;99.90;;;;;;5217865;28;20508;-74
2023/09/10 08:06:09;;;;;;;17.48;8.02;;;25.40;99.90;;;;;;5224392;28;20029;-75
2023/09/10 08:08:40;;;;;;;16.00;9.18;;;25.30;99.90;;;;;;5224206;28;20091;-75
2023/09/10 08:11:11;;;;;;;12.38;8.90;;;25.50;99.90;;;;;;5224326;28;20036;-75
2023/09/10 08:13:42;;;;;;;14.45;10.82;;;25.20;99.90;;;;;;5217483;28;20579;-74
2023/09/10 08:16:14;;;;;;;13.50;10.02;;;25.20;99.90;;;;;;5223962;28;20119;-75
2023/09/10 08:18:45;;;;;;;12.50;9.68;;;25.40;99.90;;;;;;5229279;28;20453;-75
2023/09/10 08:21:16;;;;;;;14.27;10.15;;;25.80;99.90;;;;;;5246772;28;20112;-75
2023/09/10 08:23:47;;;;;;;11.25;9.52;;;25.60;99.90;;;;;;5247261;28;20033;-75
2023/09/10 08:26:18;;;;;;;10.75;9.60;;;25.60;99.90;;;;;;5247176;28;20055;-76
2023/09/10 08:28:49;;;;;;;13.23;9.10;;;25.40;99.90;;;;;;5247186;28;20028;-76
2023/09/10 08:31:20;;;;;;;10.57;8.90;;;25.40;99.90;;;;;;5246819;28;21548;-75
2023/09/10 08:33:51;;;;;;;18.70;9.60;;;25.20;99.90;;;;;;5247087;28;20016;-75
2023/09/10 08:36:22;;;;;;;12.63;7.00;;;24.90;99.90;;;;;;5245297;28;20033;-75
2023/09/10 08:38:54;;;;;;;12.80;7.68;;;24.70;99.90;;;;;;5244529;28;20064;-75
2023/09/10 08:41:43;;;;;;;12.82;9.75;;;24.80;99.90;;;;;;5245904;28;20070;-75
2023/09/10 08:44:19;;;;;;;9.30;7.88;;;24.60;99.90;;;;;;5245590;28;20040;-75
2023/09/10 08:46:52;;;;;;;11.10;7.28;;;24.70;99.90;;;;;;5245661;28;20024;-75
2023/09/10 08:49:26;;;;;;;10.52;7.30;;;24.80;99.90;;;;;;5243247;28;20047;-75
2023/09/10 08:51:57;;;;;;;10.50;7.80;;;25.10;99.90;;;;;;5246124;28;20119;-75
2023/09/10 08:54:28;;;;;;;13.07;9.48;;;24.90;99.90;;;;;;5245182;28;20048;-75
2023/09/10 08:57:01;;;;;;;15.38;10.55;;;24.80;99.90;;;;;;5245858;28;20433;-75
2023/09/10 08:59:34;;;;;;;16.77;9.60;;;25.30;99.90;;;;;;5246454;28;20045;-75
2023/09/10 09:02:07;;;;;;;12.57;7.80;;;25.40;99.90;;;;;;5244934;28;20484;-75
2023/09/10 09:04:38;;;;;;;14.60;8.93;;;25.60;99.90;;;;;;5237961;28;20016;-75
2023/09/10 09:07:12;;;;;;;13.05;8.32;;;25.50;99.90;;;;;;5244347;28;20474;-76
2023/09/10 09:09:49;;;;;;;11.43;7.65;;;25.30;99.90;;;;;;5245839;28;20078;-76
2023/09/10 09:12:20;;;;;;;15.55;8.75;;;25.00;99.90;;;;;;5242396;28;20028;-75
2023/09/10 09:14:52;;;;;;;13.93;9.30;;;24.80;99.90;;;;;;5241821;28;20120;-75
2023/09/10 09:17:23;;;;;;;13.88;8.85;;;24.80;99.90;;;;;;5243816;28;20032;-75
2023/09/10 09:19:58;;;;;;;16.50;8.48;;;25.00;99.90;;;;;;5246074;28;20016;-77
2023/09/10 09:22:31;;;;;;;13.05;9.48;;;25.30;99.90;;;;;;5237270;28;20053;-76
2023/09/10 09:25:05;;;;;;;15.23;7.82;;;25.60;99.90;;;;;;5244258;28;20114;-77
2023/09/10 09:27:41;;;;;;;13.70;7.35;;;25.90;99.90;;;;;;5244652;28;20414;-76
2023/09/10 09:30:12;;;;;;;13.82;7.70;;;26.00;99.90;;;;;;5245566;28;20037;-76
2023/09/10 09:32:45;;;;;;;11.48;7.22;;;25.70;99.90;;;;;;5246832;28;20053;-75
2023/09/10 09:35:18;;;;;;;13.35;8.27;;;25.40;99.90;;;;;;5245517;28;20024;-76
2023/09/10 09:37:50;;;;;;;11.98;9.20;;;25.00;99.90;;;;;;5240125;28;20020;-76
2023/09/10 09:40:21;;;;;;;18.60;10.95;;;24.90;99.90;;;;;;5244201;28;20025;-76
2023/09/10 09:42:54;;;;;;;14.65;10.88;;;24.80;99.90;;;;;;5248635;28;20093;-76
2023/09/10 09:45:26;;;;;;;12.57;9.45;;;24.40;99.90;;;;;;5228325;28;20040;-76
2023/09/10 09:47:57;;;;;;;14.88;13.57;;;24.10;99.90;;;;;;5229647;28;20025;-76
2023/09/10 09:50:28;;;;;;;12.65;9.38;;;24.00;99.90;;;;;;5248114;28;20506;-76
2023/09/10 09:52:59;;;;;;;20.60;8.43;;;23.90;99.90;;;;;;5245592;28;20024;-76
2023/09/10 09:55:30;;;;;;;15.25;8.57;;;23.80;99.90;;;;;;5245766;28;20028;-76
2023/09/10 09:58:04;;;;;;;13.02;7.15;;;23.80;99.90;;;;;;5245215;28;20479;-76
2023/09/10 10:00:37;;;;;;;13.07;7.22;;;23.80;99.90;;;;;;5246975;28;20059;-76
2023/09/10 10:03:08;;;;;;;14.90;7.70;;;24.10;99.90;;;;;;5237875;28;20031;-77
2023/09/10 10:05:39;;;;;;;13.70;9.23;;;24.00;99.90;;;;;;5243509;28;20036;-76
2023/09/10 10:08:10;;;;;;;14.82;8.55;;;24.00;99.90;;;;;;5243845;28;20044;-76
2023/09/10 10:10:48;;;;;;;13.65;8.77;;;24.20;99.90;;;;;;5250671;28;20115;-76
2023/09/10 10:13:22;;;;;;;13.48;7.38;;;24.10;99.90;;;;;;5250346;28;20025;-76
2023/09/10 10:15:56;;;;;;;14.95;8.10;;;24.10;99.90;;;;;;5250888;28;20028;-78
2023/09/10 10:18:27;;;;;;;12.90;8.00;;;24.10;99.90;;;;;;5248486;28;20032;-77
2023/09/10 10:20:58;;;;;;;18.73;7.72;;;24.20;99.90;;;;;;5249232;28;20028;-77
2023/09/10 10:23:30;;;;;;;11.13;6.85;;;24.10;99.90;;;;;;5248373;28;20047;-76
2023/09/10 10:26:05;;;;;;;13.27;6.78;;;23.80;99.90;;;;;;5242539;28;20773;-76
2023/09/10 10:28:37;;;;;;;11.68;7.70;;;23.60;99.90;;;;;;5248915;28;20499;-77
2023/09/10 10:31:14;;;;;;;13.27;7.43;;;23.50;99.90;;;;;;5250470;28;20111;-77
2023/09/10 10:34:07;;;;;;;11.18;6.80;;;23.50;99.90;;;;;;5250177;28;20104;-76
2023/09/10 10:37:03;;;;;;;13.48;7.20;;;23.70;99.90;;;;;;5241966;28;20128;-77
2023/09/10 10:39:51;;;;;;;10.32;6.85;;;23.40;99.90;;;;;;5230265;28;20110;-76
2023/09/10 10:42:52;;;;;;;15.70;7.43;;;23.10;99.90;;;;;;5230406;28;20028;-76
2023/09/10 10:45:24;;;;;;;10.10;6.60;;;23.00;99.90;;;;;;5248947;28;20035;-77
2023/09/10 10:48:00;;;;;;;11.05;6.95;;;23.10;99.90;;;;;;5250339;28;20020;-77
2023/09/10 10:50:34;;;;;;;7.75;7.05;;;23.10;99.90;;;;;;5241453;28;20037;-77
2023/09/10 10:53:18;;;;;;;11.10;7.63;;;23.10;99.90;;;;;;5245080;28;20441;-77
2023/09/10 10:55:52;;;;;;;11.80;7.57;;;23.00;99.90;;;;;;5249254;28;20028;-77
2023/09/10 10:58:24;;;;;;;10.00;7.80;;;23.10;99.90;;;;;;5250376;28;20064;-78
2023/09/10 11:00:58;;;;;;;11.45;7.45;;;22.90;99.90;;;;;;5248554;28;20037;-77
2023/09/10 11:03:31;;;;;;;13.35;8.93;;;22.90;99.90;;;;;;5249764;28;20039;-77
2023/09/10 11:06:05;;;;;;;14.52;9.25;;;23.10;99.90;;;;;;5249991;28;20484;-77
2023/09/10 11:08:46;;;;;;;14.00;9.77;;;23.30;99.90;;;;;;5250188;28;20464;-78
2023/09/10 11:11:36;;;;;;;14.20;8.60;;;23.60;99.90;;;;;;5248659;28;20040;-77
2023/09/10 11:14:10;;;;;;;11.93;7.45;;;23.70;99.90;;;;;;5249949;28;20037;-77
2023/09/10 11:16:43;;;;;;;16.13;7.20;;;23.80;99.90;;;;;;5215512;28;20028;-78
2023/09/10 11:19:42;;;;;;;12.88;7.70;;;23.70;99.90;;;;;;5249157;28;20070;-79
2023/09/10 11:22:15;;;;;;;9.00;6.72;;;23.70;99.90;;;;;;5245589;28;21491;-79
2023/09/10 11:25:00;;;;;;;11.90;6.88;;;24.30;99.90;;;;;;5245933;28;20024;-77
2023/09/10 11:27:33;;;;;;;15.38;7.70;;;24.00;99.90;;;;;;5240757;28;20108;-77
2023/09/10 11:30:15;;;;;;;10.30;7.43;;;24.30;99.90;;;;;;5248389;28;20123;-77
2023/09/10 11:32:46;;;;;;;14.55;8.75;;;24.50;99.90;;;;;;5238468;28;20025;-77
2023/09/10 11:35:20;;;;;;;13.80;7.97;;;24.80;99.90;;;;;;5248353;28;20021;-77
2023/09/10 11:37:53;;;;;;;14.45;7.53;;;24.80;99.90;;;;;;5249516;28;20024;-77
2023/09/10 11:40:25;;;;;;;10.63;8.30;;;24.80;99.90;;;;;;5240995;28;20043;-76
2023/09/10 11:42:57;;;;;;;11.23;7.90;;;24.90;99.90;;;;;;5246042;28;20039;-77
2023/09/10 11:45:32;;;;;;;12.60;8.55;;;25.10;99.90;;;;;;5234972;28;20033;-77
2023/09/10 11:48:05;;;;;;;8.05;6.80;;;24.80;99.90;;;;;;5238592;28;20024;-76
2023/09/10 11:50:37;;;;;;;13.68;8.20;;;25.00;99.90;;;;;;5244342;28;20566;-77
2023/09/10 11:53:08;;;;;;;14.05;7.82;;;25.40;99.90;;;;;;5242885;28;20494;-77
2023/09/10 11:55:39;;;;;;;13.13;7.55;;;25.00;99.90;;;;;;5248345;28;20037;-76
2023/09/10 11:58:11;;;;;;;9.82;6.22;;;25.10;99.90;;;;;;5243076;28;20012;-77
2023/09/10 12:00:44;;;;;;;10.15;6.20;;;25.60;99.90;;;;;;5248433;28;20072;-77
2023/09/10 12:03:15;;;;;;;15.73;6.72;;;25.40;99.90;;;;;;5235316;28;20023;-76
2023/09/10 12:05:46;;;;;;;12.50;6.28;;;25.60;99.90;;;;;;5234600;28;20029;-76
2023/09/10 12:08:17;;;;;;;19.65;6.13;;;25.40;99.90;;;;;;5248627;28;20028;-76
2023/09/10 12:10:55;;;;;;;11.63;6.65;;;25.10;99.90;;;;;;5247287;28;20032;-77
2023/09/10 12:13:27;;;;;;;12.23;5.85;;;25.40;99.90;;;;;;5240998;28;20377;-77
2023/09/10 12:15:58;;;;;;;14.27;6.82;;;25.40;99.90;;;;;;5248426;28;20048;-77
2023/09/10 12:18:30;;;;;;;13.75;5.80;;;25.20;99.90;;;;;;5240596;28;20024;-77
2023/09/10 12:21:03;;;;;;;11.15;6.38;;;25.00;99.90;;;;;;5246604;28;20029;-76
2023/09/10 12:23:34;;;;;;;11.27;6.60;;;25.20;99.90;;;;;;5236329;28;20020;-77
2023/09/10 12:26:05;;;;;;;12.02;6.43;;;25.00;99.90;;;;;;5240730;28;20123;-76
2023/09/10 12:28:35;;;;;;;13.05;6.25;;;24.80;99.90;;;;;;5243367;28;20099;-77
2023/09/10 12:31:06;;;;;;;13.27;7.32;;;24.80;99.90;;;;;;5247717;28;20134;-77
2023/09/10 12:33:37;;;;;;;11.25;6.22;;;24.80;99.90;;;;;;5235803;28;20028;-77
2023/09/10 12:36:09;;;;;;;11.70;6.32;;;24.80;99.90;;;;;;5247931;28;20368;-78
2023/09/10 12:38:40;;;;;;;13.60;6.70;;;25.40;99.90;;;;;;5247320;28;20111;-77
2023/09/10 12:41:10;;;;;;;10.55;6.68;;;25.10;99.90;;;;;;5246794;28;20112;-77
2023/09/10 12:43:43;;;;;;;12.65;6.07;;;24.90;99.90;;;;;;5248144;28;20472;-77
2023/09/10 12:46:14;;;;;;;8.68;6.72;;;24.80;99.90;;;;;;5248146;28;20025;-77
2023/09/10 12:48:46;;;;;;;12.52;7.32;;;24.90;99.90;;;;;;5248428;28;20035;-77
2023/09/10 12:51:17;;;;;;;14.88;7.28;;;24.80;99.90;;;;;;5248128;28;20037;-77
2023/09/10 12:53:48;;;;;;;12.60;7.25;;;24.70;99.90;;;;;;5246458;28;20245;-76
2023/09/10 12:56:19;;;;;;;8.63;6.72;;;25.10;99.90;;;;;;5246092;28;20545;-76
2023/09/10 12:58:49;;;;;;;12.20;7.70;;;24.90;99.90;;;;;;5244399;28;20025;-75
2023/09/10 13:01:25;;;;;;;10.73;7.13;;;24.90;99.90;;;;;;5243535;28;20040;-75
2023/09/10 13:03:57;;;;;;;12.30;8.27;;;24.80;99.90;;;;;;5246343;28;20036;-76
2023/09/10 13:06:29;;;;;;;10.68;7.95;;;24.60;99.90;;;;;;5244345;28;20035;-76
2023/09/10 13:09:04;;;;;;;13.50;7.22;;;24.40;99.90;;;;;;5245133;28;20111;-75